< < Back
Terminal Aerodrome Forecast


Current Version              Previous Versions:   1  2  3  4  5  6  7  8  9  

Terminal Aerodrome Forecast

983
FTUS42 KCAE 130835 AAA
TAFAGS
TAF AMD
KAGS 130835Z 1309/1406 31010KT P6SM SKC
     FM131400 35010KT P6SM SKC=

Latest METAR

344
SAUS70 KWBC 131100 RRH
MTRAGS
METAR KAGS 131053Z AUTO 32008KT 10SM CLR 03/M04 A3019 RMK AO2 SLP223
T00281044


USA.gov is the U.S. government's official web portal to all federal, state and local government web resources and services.